Time;durP1;ratioP1;P1;durP2;ratioP2;P2;SDS_P1;SDS_P2;PMS_P1;PMS_P2;Temp;Humidity;BMP_temperature;BMP_pressure;BME280_temperature;BME280_humidity;BME280_pressure;Samples;Min_cycle;Max_cycle;Signal;HPM_P1;HPM_P2
2022/01/12 00:01:20;;;;;;;2.10;1.90;;;4.90;1.00;;;;;;5021914;28;20830;-75
2022/01/12 00:03:46;;;;;;;2.23;2.03;;;4.80;1.00;;;;;;5021523;28;20455;-75
2022/01/12 00:06:19;;;;;;;4.20;2.60;;;4.80;1.00;;;;;;5025148;28;20427;-75
2022/01/12 00:08:56;;;;;;;5.27;2.47;;;4.70;1.00;;;;;;5025233;28;20505;-75
2022/01/12 00:11:22;;;;;;;3.63;1.93;;;4.70;1.00;;;;;;5021517;28;20453;-75
2022/01/12 00:13:53;;;;;;;2.60;1.80;;;4.70;1.00;;;;;;5016510;28;20824;-77
2022/01/12 00:16:19;;;;;;;2.40;2.20;;;4.70;1.00;;;;;;5022750;28;20419;-77
2022/01/12 00:18:46;;;;;;;2.25;1.63;;;4.70;1.00;;;;;;5018972;28;20415;-76
2022/01/12 00:21:26;;;;;;;2.63;2.43;;;4.70;1.00;;;;;;5022261;28;20228;-76
2022/01/12 00:24:01;;;;;;;4.10;2.00;;;4.60;1.00;;;;;;5055228;28;20426;-77
2022/01/12 00:26:42;;;;;;;2.53;2.37;;;4.60;1.00;;;;;;5064618;28;20413;-77
2022/01/12 00:34:36;;;;;;;1.93;1.73;;;4.60;1.00;;;;;;5060682;28;20414;-75
2022/01/12 00:37:02;;;;;;;3.10;2.20;;;4.60;1.00;;;;;;5070104;28;20429;-76
2022/01/12 00:39:27;;;;;;;2.83;1.77;;;4.50;1.00;;;;;;5060198;28;20203;-75
2022/01/12 00:41:55;;;;;;;2.17;2.00;;;4.50;1.00;;;;;;5066994;28;20418;-75
2022/01/12 00:44:33;;;;;;;2.13;1.97;;;4.60;1.00;;;;;;5056172;28;20225;-75
2022/01/12 00:47:31;;;;;;;14.73;2.20;;;4.60;1.00;;;;;;5054965;28;20424;-75
2022/01/12 00:50:02;;;;;;;2.27;2.10;;;4.50;1.00;;;;;;5047738;28;20413;-75
2022/01/12 00:52:28;;;;;;;2.20;1.63;;;4.50;1.00;;;;;;5068184;28;20962;-75
2022/01/12 00:55:13;;;;;;;3.53;2.00;;;4.50;1.00;;;;;;5066036;28;20646;-75
2022/01/12 00:57:43;;;;;;;12.97;2.00;;;4.40;1.00;;;;;;5060910;28;20182;-77
2022/01/12 01:00:09;;;;;;;2.60;1.57;;;4.40;1.00;;;;;;5063185;28;20462;-77
2022/01/12 01:02:49;;;;;;;2.80;1.63;;;4.40;1.00;;;;;;5066371;28;20446;-76
2022/01/12 01:05:19;;;;;;;2.07;1.60;;;4.30;1.00;;;;;;5066557;28;20487;-76
2022/01/12 01:07:55;;;;;;;2.53;2.20;;;4.20;1.00;;;;;;5060312;28;20445;-77
2022/01/12 01:13:02;;;;;;;3.58;1.80;;;4.10;1.00;;;;;;5064530;28;20554;-75
2022/01/12 01:15:54;;;;;;;2.95;2.00;;;4.10;1.00;;;;;;5066610;28;20183;-75
2022/01/12 01:27:10;;;;;;;1.38;1.38;;;3.80;1.00;;;;;;5070583;28;20187;-75
2022/01/12 01:29:36;;;;;;;1.70;1.60;;;3.60;1.00;;;;;;5067310;28;20184;-76
2022/01/12 01:32:02;;;;;;;2.70;1.60;;;3.60;1.00;;;;;;5070782;28;20195;-76
2022/01/12 01:34:28;;;;;;;1.77;1.67;;;3.50;1.00;;;;;;5070282;28;20425;-77
2022/01/12 01:36:56;;;;;;;1.57;1.30;;;3.30;1.00;;;;;;5070729;28;20237;-77
2022/01/12 01:39:27;;;;;;;6.28;2.03;;;5.30;1.00;;;;;;5070157;28;20557;-77
2022/01/12 01:42:03;;;;;;;2.22;2.05;;;3.10;1.00;;;;;;5051597;28;20167;-76
2022/01/12 01:55:32;;;;;;;2.25;2.13;;;2.50;1.00;;;;;;5073866;28;20186;-75
2022/01/12 01:58:15;;;;;;;3.73;1.97;;;2.40;1.00;;;;;;5063348;28;20195;-76
2022/01/12 02:00:44;;;;;;;1.95;1.85;;;2.30;1.00;;;;;;5063555;28;20206;-76
2022/01/12 02:03:20;;;;;;;2.60;2.40;;;2.20;1.00;;;;;;5070387;28;20183;-77
2022/01/12 02:05:49;;;;;;;2.40;2.20;;;2.10;1.00;;;;;;5059295;28;20167;-77
2022/01/12 02:08:26;;;;;;;2.75;2.40;;;2.10;1.00;;;;;;5060239;28;20183;-77
2022/01/12 02:10:57;;;;;;;2.78;2.45;;;1.90;1.00;;;;;;5069793;28;20198;-77
2022/01/12 02:13:26;;;;;;;5.72;2.25;;;1.80;1.00;;;;;;5069966;28;20534;-75
2022/01/12 02:15:54;;;;;;;2.45;2.25;;;1.70;1.00;;;;;;5069517;28;20180;-75
2022/01/12 02:19:03;;;;;;;3.53;2.30;;;1.80;1.00;;;;;;5055666;28;20187;-74
2022/01/12 02:35:44;;;;;;;3.83;2.33;;;1.30;1.00;;;;;;5069618;28;20749;-77
2022/01/12 02:41:14;;;;;;;2.83;2.08;;;1.20;1.00;;;;;;5069749;28;20205;-77
2022/01/12 02:54:51;;;;;;;2.17;2.08;;;0.90;1.00;;;;;;5062743;28;20712;-75
2022/01/12 02:57:20;;;;;;;5.57;2.25;;;0.80;1.00;;;;;;5068890;28;20187;-75
2022/01/12 03:00:09;;;;;;;2.05;1.95;;;0.80;1.00;;;;;;5064205;28;20673;-77
2022/01/12 03:02:52;;;;;;;3.58;2.50;;;0.80;1.00;;;;;;5043564;28;20178;-77
2022/01/12 03:08:10;;;;;;;2.45;2.25;;;0.70;1.00;;;;;;5073460;28;20187;-77
2022/01/12 03:10:43;;;;;;;2.50;1.80;;;0.70;1.00;;;;;;5061948;28;20862;-77
2022/01/12 03:13:31;;;;;;;2.10;2.00;;;0.70;1.00;;;;;;5063718;28;20333;-77
2022/01/12 03:15:57;;;;;;;2.72;2.33;;;0.70;1.00;;;;;;5058598;28;20186;-75
2022/01/12 03:18:23;;;;;;;2.47;2.28;;;0.60;1.00;;;;;;5060332;28;20589;-75
2022/01/12 03:20:49;;;;;;;5.43;2.10;;;0.60;1.00;;;;;;5066896;28;20207;-75
2022/01/12 03:23:15;;;;;;;3.30;2.03;;;0.50;1.00;;;;;;5068502;28;21788;-74
2022/01/12 03:25:42;;;;;;;3.17;2.10;;;0.50;1.00;;;;;;5069755;28;20666;-75
2022/01/12 03:28:13;;;;;;;1.90;1.80;;;0.40;1.00;;;;;;5071769;28;20269;-75
2022/01/12 03:31:07;;;;;;;3.75;2.42;;;0.40;1.00;;;;;;5064435;28;20530;-77
2022/01/12 03:39:16;;;;;;;1.85;1.75;;;0.30;1.00;;;;;;5000491;28;20194;-77
2022/01/12 03:42:01;;;;;;;2.23;2.13;;;0.30;1.00;;;;;;5011521;28;20185;-77
2022/01/12 03:44:31;;;;;;;2.33;2.22;;;0.30;1.00;;;;;;4999483;28;20244;-77
2022/01/12 03:47:01;;;;;;;11.18;2.35;;;0.30;1.00;;;;;;5012951;28;20177;-77
2022/01/12 03:49:31;;;;;;;3.50;2.00;;;0.30;1.00;;;;;;5010073;28;20200;-77
2022/01/12 03:51:57;;;;;;;1.83;1.73;;;0.20;1.00;;;;;;4992978;28;20697;-77
2022/01/12 03:54:25;;;;;;;2.67;2.43;;;0.30;1.00;;;;;;5009584;28;20287;-77
2022/01/12 03:56:51;;;;;;;2.13;2.03;;;0.30;1.00;;;;;;5012319;28;20197;-77
2022/01/12 03:59:25;;;;;;;2.20;2.10;;;0.30;1.00;;;;;;5012624;28;20289;-76
2022/01/12 04:01:56;;;;;;;2.95;2.47;;;0.20;1.00;;;;;;5001448;28;20511;-77
2022/01/12 04:04:30;;;;;;;2.85;2.35;;;0.20;1.00;;;;;;5006463;28;20282;-78
2022/01/12 04:10:02;;;;;;;2.70;2.45;;;0.30;1.00;;;;;;5002423;28;20200;-77
2022/01/12 04:12:37;;;;;;;6.15;2.78;;;0.30;1.00;;;;;;4998900;28;20219;-77
2022/01/12 04:15:07;;;;;;;2.33;2.13;;;0.40;1.00;;;;;;5012816;28;20200;-75
2022/01/12 04:17:37;;;;;;;8.18;2.05;;;0.40;1.00;;;;;;5054044;28;20183;-75
2022/01/12 04:20:13;;;;;;;3.65;2.40;;;0.40;1.00;;;;;;5060357;28;20727;-75
2022/01/12 04:25:25;;;;;;;3.10;2.67;;;0.40;1.00;;;;;;5060812;28;20201;-75
2022/01/12 04:27:55;;;;;;;3.25;2.35;;;0.50;1.00;;;;;;5062405;28;20172;-75
2022/01/12 04:30:21;;;;;;;2.92;2.30;;;0.50;1.00;;;;;;5068010;28;20846;-75
2022/01/12 04:32:55;;;;;;;3.27;2.40;;;0.60;1.00;;;;;;5054037;28;20183;-75
2022/01/12 04:35:31;;;;;;;3.15;2.17;;;0.70;1.00;;;;;;5053988;28;20742;-75
2022/01/12 04:37:56;;;;;;;3.00;2.35;;;0.70;1.00;;;;;;5066809;28;20182;-75
2022/01/12 04:40:22;;;;;;;4.10;2.03;;;0.70;1.00;;;;;;5061074;28;20212;-75
2022/01/12 04:42:48;;;;;;;2.80;2.60;;;0.80;1.00;;;;;;5060390;28;20414;-75
2022/01/12 04:45:38;;;;;;;2.87;2.30;;;0.70;1.00;;;;;;5062321;28;20243;-75
2022/01/12 04:50:44;;;;;;;2.53;2.42;;;0.70;1.00;;;;;;5061145;28;20188;-75
2022/01/12 04:53:11;;;;;;;2.60;2.35;;;0.70;1.00;;;;;;5066500;28;20234;-75
2022/01/12 04:55:37;;;;;;;2.78;2.58;;;;;;;;;;5066765;28;20194;-74
2022/01/12 04:58:08;;;;;;;2.30;2.10;;;0.60;1.00;;;;;;5060150;28;20258;-76
2022/01/12 05:00:36;;;;;;;2.40;2.20;;;0.50;1.00;;;;;;5058915;28;20211;-77
2022/01/12 05:13:46;;;;;;;4.90;2.28;;;0.50;1.00;;;;;;5063342;28;20185;-77
2022/01/12 05:16:12;;;;;;;4.50;2.88;;;0.60;1.00;;;;;;5062525;28;20202;-75
2022/01/12 05:18:40;;;;;;;2.33;2.22;;;0.70;1.00;;;;;;5056299;28;20211;-75
2022/01/12 05:21:08;;;;;;;3.40;2.38;;;0.70;1.00;;;;;;5052942;28;20639;-75
2022/01/12 05:23:35;;;;;;;2.85;2.65;;;0.70;1.00;;;;;;5066885;28;20179;-75
2022/01/12 05:26:01;;;;;;;2.40;2.10;;;0.70;1.00;;;;;;5051422;28;20179;-75
2022/01/12 05:28:38;;;;;;;3.60;2.70;;;0.80;1.00;;;;;;5054896;28;20715;-75
2022/01/12 05:31:09;;;;;;;3.40;2.50;;;0.80;1.00;;;;;;5053577;28;20544;-77
2022/01/12 05:33:50;;;;;;;2.85;2.58;;;0.80;1.00;;;;;;5070003;28;20543;-77
2022/01/12 05:36:18;;;;;;;2.55;2.00;;;0.90;1.00;;;;;;5056353;28;20923;-77
2022/01/12 05:38:49;;;;;;;2.47;2.28;;;0.80;1.00;;;;;;5049311;28;20179;-76
2022/01/12 05:41:27;;;;;;;6.30;2.90;;;0.90;1.00;;;;;;5053082;28;20741;-77
2022/01/12 05:43:53;;;;;;;2.85;2.60;;;0.90;1.00;;;;;;5040754;28;20328;-77
2022/01/12 05:46:23;;;;;;;4.30;2.57;;;0.90;1.00;;;;;;5062157;28;20702;-75
2022/01/12 05:51:34;;;;;;;3.03;2.25;;;0.90;1.00;;;;;;5055626;28;20191;-75
2022/01/12 05:54:00;;;;;;;3.63;2.90;;;0.90;1.00;;;;;;5057259;28;20188;-74
2022/01/12 05:56:26;;;;;;;2.22;2.10;;;0.90;1.00;;;;;;5063839;28;20907;-75
2022/01/12 05:58:52;;;;;;;3.50;2.70;;;0.90;1.00;;;;;;5068764;28;20214;-75
2022/01/12 06:01:18;;;;;;;3.83;2.53;;;;;;;;;;5055492;28;20214;-75
2022/01/12 06:03:44;;;;;;;2.50;2.35;;;1.00;1.00;;;;;;5054477;28;20418;-75
2022/01/12 06:06:09;;;;;;;3.03;2.73;;;1.00;1.00;;;;;;5060487;28;20519;-75
2022/01/12 06:08:50;;;;;;;2.67;2.43;;;1.00;1.00;;;;;;5064269;28;20176;-75
2022/01/12 06:11:15;;;;;;;4.50;2.65;;;1.00;1.00;;;;;;5056393;28;20179;-75
2022/01/12 06:13:43;;;;;;;3.80;3.10;;;1.00;1.00;;;;;;5069614;28;20190;-75
2022/01/12 06:16:12;;;;;;;2.67;2.45;;;1.00;1.00;;;;;;5063358;28;20175;-76
2022/01/12 06:18:38;;;;;;;2.80;2.60;;;1.00;1.00;;;;;;5070155;28;20548;-75
2022/01/12 06:21:19;;;;;;;3.13;2.83;;;1.00;1.00;;;;;;5056508;28;20274;-75
2022/01/12 06:24:02;;;;;;;3.38;2.70;;;1.00;1.00;;;;;;5053688;28;20272;-75
2022/01/12 06:26:27;;;;;;;3.08;2.47;;;1.00;1.00;;;;;;5065283;28;20294;-75
2022/01/12 06:31:50;;;;;;;6.38;2.97;;;1.00;1.00;;;;;;5060783;28;20476;-75
2022/01/12 06:34:17;;;;;;;5.40;2.75;;;1.00;1.00;;;;;;5066989;28;20190;-75
2022/01/12 06:36:44;;;;;;;3.30;2.72;;;0.90;1.00;;;;;;5065964;28;20270;-76
2022/01/12 06:39:13;;;;;;;4.03;3.13;;;0.90;1.00;;;;;;5062153;28;20275;-75
2022/01/12 06:41:40;;;;;;;5.05;2.85;;;1.00;1.00;;;;;;5066121;28;20171;-75
2022/01/12 06:44:31;;;;;;;2.75;2.53;;;0.90;1.00;;;;;;5074017;28;20187;-75
2022/01/12 06:47:08;;;;;;;3.13;2.90;;;1.00;1.00;;;;;;5060001;28;20187;-74
2022/01/12 06:49:34;;;;;;;3.80;2.67;;;1.00;1.00;;;;;;5056474;28;20193;-75
2022/01/12 06:52:00;;;;;;;3.50;2.92;;;1.00;1.00;;;;;;5056426;28;20168;-75
2022/01/12 06:54:26;;;;;;;4.68;2.58;;;1.00;1.00;;;;;;5055073;28;20605;-75
2022/01/12 06:57:13;;;;;;;3.50;2.80;;;1.00;1.00;;;;;;5065786;28;20201;-75
2022/01/12 06:59:39;;;;;;;4.43;3.25;;;1.00;1.00;;;;;;5052760;28;20203;-76
2022/01/12 07:02:20;;;;;;;3.27;2.97;;;0.90;1.00;;;;;;5055474;28;20210;-77
2022/01/12 07:04:45;;;;;;;3.38;3.00;;;0.90;1.00;;;;;;5067177;28;20179;-77
2022/01/12 07:07:11;;;;;;;6.47;3.10;;;0.80;1.00;;;;;;5071945;28;20549;-77
2022/01/12 07:09:37;;;;;;;3.07;2.50;;;0.70;1.00;;;;;;5061861;28;20182;-77
2022/01/12 07:12:03;;;;;;;3.43;2.53;;;0.80;1.00;;;;;;5053070;28;20195;-76
2022/01/12 07:14:28;;;;;;;2.90;2.67;;;0.90;1.00;;;;;;5052513;28;20541;-78
2022/01/12 07:16:54;;;;;;;4.47;2.87;;;0.90;1.00;;;;;;5066965;28;20733;-76
2022/01/12 07:19:20;;;;;;;2.77;2.57;;;0.90;1.00;;;;;;5066694;28;20191;-78
2022/01/12 07:21:45;;;;;;;3.53;3.23;;;0.90;1.00;;;;;;5058832;28;20192;-78
2022/01/12 07:24:11;;;;;;;2.57;2.43;;;0.90;1.00;;;;;;5055460;28;20685;-77
2022/01/12 07:26:37;;;;;;;3.63;2.40;;;5.00;1.00;;;;;;5054016;28;20512;-77
2022/01/12 07:29:03;;;;;;;4.03;3.10;;;;;;;;;;5069880;28;20695;-76
2022/01/12 07:31:38;;;;;;;3.40;2.80;;;1.00;1.00;;;;;;5068766;28;20171;-77
2022/01/12 07:34:03;;;;;;;4.10;2.88;;;1.10;1.00;;;;;;5068523;28;20270;-76
2022/01/12 07:36:37;;;;;;;3.20;2.80;;;1.00;1.00;;;;;;5055547;28;20211;-77
2022/01/12 07:39:20;;;;;;;4.60;3.38;;;1.10;1.00;;;;;;5066415;28;20540;-79
2022/01/12 07:41:45;;;;;;;4.07;3.50;;;1.10;1.00;;;;;;5047837;28;20186;-79
2022/01/12 07:44:21;;;;;;;5.83;3.50;;;1.10;1.00;;;;;;5054234;28;20176;-79
2022/01/12 07:46:47;;;;;;;3.95;2.95;;;1.10;1.00;;;;;;5056428;28;20250;-78
2022/01/12 07:49:12;;;;;;;4.00;3.10;;;1.00;1.00;;;;;;5054608;28;20209;-74
2022/01/12 07:51:38;;;;;;;3.33;3.03;;;1.00;1.00;;;;;;5062875;28;20417;-77
2022/01/12 07:54:08;;;;;;;2.70;2.50;;;1.00;1.00;;;;;;5059214;28;20195;-75
2022/01/12 07:56:49;;;;;;;8.65;3.25;;;1.00;1.00;;;;;;5054177;28;20190;-78
2022/01/12 07:59:26;;;;;;;3.63;3.15;;;0.90;1.00;;;;;;5054148;28;20174;-79
2022/01/12 08:01:51;;;;;;;3.05;2.60;;;0.90;1.00;;;;;;5061846;28;20262;-79
2022/01/12 08:04:17;;;;;;;4.70;2.70;;;0.80;1.00;;;;;;5066202;28;20260;-78
2022/01/12 08:06:44;;;;;;;4.00;3.33;;;0.90;1.00;;;;;;5056422;28;20799;-77
2022/01/12 08:09:20;;;;;;;3.28;2.80;;;0.80;1.00;;;;;;5053944;28;20723;-77
2022/01/12 08:11:50;;;;;;;5.60;3.10;;;0.80;1.00;;;;;;5065489;28;20269;-77
2022/01/12 08:14:15;;;;;;;4.22;3.33;;;0.80;1.00;;;;;;5055129;28;20190;-77
2022/01/12 08:16:56;;;;;;;4.00;3.13;;;0.80;1.00;;;;;;5062454;28;20176;-78
2022/01/12 08:19:23;;;;;;;4.72;2.95;;;0.80;1.00;;;;;;5041356;28;20179;-75
2022/01/12 08:21:50;;;;;;;3.20;2.90;;;0.80;1.00;;;;;;5063188;28;20183;-77
2022/01/12 08:24:26;;;;;;;3.70;2.90;;;0.80;1.00;;;;;;5065569;28;20325;-76
2022/01/12 08:26:55;;;;;;;3.20;2.90;;;0.80;1.00;;;;;;5055901;28;20167;-76
2022/01/12 08:29:22;;;;;;;4.45;3.03;;;0.80;1.00;;;;;;5053896;28;20168;-76
2022/01/12 08:31:48;;;;;;;5.30;3.30;;;0.80;1.00;;;;;;5053858;28;20201;-75
2022/01/12 08:34:19;;;;;;;5.82;3.75;;;0.80;1.00;;;;;;5059008;28;20265;-77
2022/01/12 08:36:50;;;;;;;4.38;3.22;;;0.80;1.00;;;;;;5057163;28;20183;-77
2022/01/12 08:39:16;;;;;;;3.35;3.03;;;0.80;1.00;;;;;;5074096;28;20245;-78
2022/01/12 08:41:56;;;;;;;3.33;3.00;;;0.80;1.00;;;;;;5056442;28;20187;-77
2022/01/12 08:44:21;;;;;;;3.47;3.17;;;0.80;1.00;;;;;;5033792;28;20181;-77
2022/01/12 08:46:47;;;;;;;3.17;2.80;;;0.90;1.00;;;;;;5069678;28;20533;-77
2022/01/12 08:49:13;;;;;;;2.83;2.60;;;0.90;1.00;;;;;;5074216;28;20393;-75
2022/01/12 08:51:39;;;;;;;3.50;2.83;;;1.00;1.00;;;;;;5060203;28;20179;-75
2022/01/12 08:54:25;;;;;;;3.93;3.10;;;1.10;1.00;;;;;;5062189;28;20286;-75
2022/01/12 08:56:51;;;;;;;9.68;3.70;;;1.20;1.00;;;;;;5060771;28;20241;-75
2022/01/12 08:59:17;;;;;;;5.90;3.13;;;1.40;1.00;;;;;;5075195;28;20191;-76
2022/01/12 09:01:44;;;;;;;2.90;2.60;;;1.50;1.00;;;;;;5050319;28;20187;-76
2022/01/12 09:04:14;;;;;;;5.18;3.50;;;1.60;1.00;;;;;;5064052;28;20194;-75
2022/01/12 09:06:44;;;;;;;3.63;3.33;;;1.70;1.00;;;;;;5060086;28;20232;-76
2022/01/12 09:09:09;;;;;;;6.00;2.97;;;1.90;1.00;;;;;;5061702;28;20188;-76
2022/01/12 09:11:38;;;;;;;4.07;3.17;;;2.00;1.00;;;;;;5058226;28;20182;-75
2022/01/12 09:14:07;;;;;;;3.42;3.10;;;2.10;1.00;;;;;;5061942;28;20164;-75
2022/01/12 09:16:38;;;;;;;6.03;3.70;;;2.30;1.00;;;;;;5067073;28;20627;-76
2022/01/12 09:19:10;;;;;;;7.03;3.55;;;2.40;1.00;;;;;;5047916;28;20180;-77
2022/01/12 09:21:35;;;;;;;3.67;3.15;;;2.60;1.00;;;;;;5064870;28;20206;-77
2022/01/12 09:24:02;;;;;;;3.73;3.10;;;2.80;1.00;;;;;;5071521;28;20656;-77
2022/01/12 09:26:32;;;;;;;9.25;3.65;;;2.90;1.00;;;;;;5063256;28;20183;-77
2022/01/12 09:29:02;;;;;;;4.10;3.22;;;3.00;1.00;;;;;;5054792;28;20219;-77
2022/01/12 09:31:32;;;;;;;4.32;3.13;;;3.10;1.00;;;;;;5061336;28;20171;-77
2022/01/12 09:34:08;;;;;;;3.45;3.15;;;3.20;1.00;;;;;;5085217;28;20214;-76
2022/01/12 09:36:33;;;;;;;8.50;4.30;;;3.30;1.00;;;;;;5064285;28;20703;-76
2022/01/12 09:39:02;;;;;;;4.83;3.37;;;3.30;1.00;;;;;;5069771;28;20187;-76
2022/01/12 09:41:32;;;;;;;10.70;3.97;;;3.40;1.00;;;;;;5060995;28;20242;-76
2022/01/12 09:43:58;;;;;;;5.32;3.63;;;3.50;1.00;;;;;;5076072;28;20546;-76
2022/01/12 09:46:28;;;;;;;10.60;3.93;;;3.60;1.00;;;;;;5064364;28;20238;-76
2022/01/12 09:49:06;;;;;;;9.32;4.90;;;3.70;1.00;;;;;;5058509;28;20464;-75
2022/01/12 09:51:32;;;;;;;9.20;4.20;;;3.90;1.00;;;;;;5063837;28;20542;-76
2022/01/12 09:54:02;;;;;;;3.65;3.20;;;4.10;1.00;;;;;;5062254;28;20277;-76
2022/01/12 09:56:32;;;;;;;8.00;4.03;;;4.30;1.00;;;;;;5067467;28;20202;-76
2022/01/12 09:58:59;;;;;;;5.67;4.00;;;4.40;1.00;;;;;;5062150;28;20430;-76
2022/01/12 10:01:39;;;;;;;6.47;3.70;;;4.50;1.00;;;;;;5055906;28;20481;-75
2022/01/12 10:04:18;;;;;;;7.43;3.67;;;4.60;1.00;;;;;;5061271;28;20944;-77
2022/01/12 10:06:50;;;;;;;6.65;4.28;;;4.70;1.00;;;;;;5068328;28;20428;-77
2022/01/12 10:09:39;;;;;;;4.27;3.70;;;4.70;1.00;;;;;;5056023;28;20609;-77
2022/01/12 10:12:17;;;;;;;7.97;3.40;;;4.70;1.00;;;;;;5045519;28;20934;-77
2022/01/12 10:14:52;;;;;;;5.40;3.73;;;4.80;1.00;;;;;;5057092;28;20486;-78
2022/01/12 10:17:46;;;;;;;10.73;3.73;;;4.90;1.00;;;;;;5053406;28;20862;-77
2022/01/12 10:20:17;;;;;;;6.57;4.03;;;5.00;1.00;;;;;;5053809;28;20481;-76
2022/01/12 10:22:57;;;;;;;7.10;3.60;;;5.10;1.00;;;;;;5069565;28;20513;-76
2022/01/12 10:25:28;;;;;;;6.57;4.27;;;5.10;1.00;;;;;;5076753;28;20841;-76
2022/01/12 10:27:58;;;;;;;6.77;4.17;;;5.20;1.00;;;;;;5087644;28;20763;-76
2022/01/12 10:30:28;;;;;;;8.80;4.60;;;5.30;1.00;;;;;;5062953;28;20463;-76
2022/01/12 10:33:10;;;;;;;8.10;4.33;;;5.30;1.00;;;;;;5057083;28;20472;-76
2022/01/12 10:35:56;;;;;;;7.13;4.33;;;5.40;1.00;;;;;;5060168;28;20935;-77
2022/01/12 10:38:22;;;;;;;7.17;4.47;;;5.40;1.00;;;;;;5067596;28;20432;-77
2022/01/12 10:40:51;;;;;;;5.60;3.80;;;5.50;1.00;;;;;;5070888;28;20462;-77
2022/01/12 10:43:38;;;;;;;6.80;4.10;;;5.60;1.00;;;;;;5066071;28;20446;-77
2022/01/12 10:46:18;;;;;;;6.27;4.00;;;5.60;1.00;;;;;;5041150;28;20426;-77
2022/01/12 10:48:53;;;;;;;4.90;3.47;;;5.70;1.00;;;;;;5055945;28;20421;-77
2022/01/12 10:51:36;;;;;;;3.23;2.80;;;5.70;1.00;;;;;;5047036;28;20424;-75
2022/01/12 10:54:08;;;;;;;5.10;2.90;;;5.60;1.00;;;;;;5064250;28;20501;-75
2022/01/12 10:56:34;;;;;;;4.88;3.13;;;5.60;1.00;;;;;;5059055;28;20422;-76
2022/01/12 10:59:00;;;;;;;3.17;2.67;;;5.60;1.00;;;;;;5066617;28;20237;-76
2022/01/12 11:01:32;;;;;;;3.13;2.53;;;5.60;1.00;;;;;;5052789;28;20212;-76
2022/01/12 11:03:59;;;;;;;2.67;2.47;;;5.60;1.00;;;;;;5056492;28;20664;-75
2022/01/12 11:06:33;;;;;;;4.70;2.70;;;5.70;1.00;;;;;;5063816;28;20453;-79
2022/01/12 11:08:59;;;;;;;2.37;2.07;;;6.00;1.00;;;;;;5052231;28;20401;-76
2022/01/12 11:11:26;;;;;;;4.30;2.20;;;6.80;1.00;;;;;;5058941;28;20765;-75
2022/01/12 11:13:53;;;;;;;6.57;2.70;;;7.20;1.00;;;;;;5058665;28;20488;-76
2022/01/12 11:16:22;;;;;;;4.77;2.90;;;7.40;1.00;;;;;;5071205;28;20813;-76
2022/01/12 11:18:48;;;;;;;6.93;3.10;;;7.70;1.00;;;;;;5056763;28;20397;-76
2022/01/12 11:21:41;;;;;;;3.80;3.03;;;8.10;1.00;;;;;;5067901;28;20522;-76
2022/01/12 11:24:11;;;;;;;4.47;2.37;;;8.10;1.00;;;;;;5080488;28;20913;-77
2022/01/12 11:26:48;;;;;;;3.30;3.00;;;8.60;1.00;;;;;;5056401;28;20952;-76
2022/01/12 11:29:13;;;;;;;6.90;3.03;;;8.70;1.00;;;;;;5057227;28;20904;-76
2022/01/12 11:31:44;;;;;;;4.97;3.23;;;8.80;1.00;;;;;;5054643;28;20413;-76
2022/01/12 11:34:26;;;;;;;4.50;2.60;;;9.00;1.00;;;;;;5057858;28;20566;-76
2022/01/12 11:37:22;;;;;;;7.77;3.90;;;9.10;1.00;;;;;;5058574;28;20429;-75
2022/01/12 11:39:48;;;;;;;8.80;3.40;;;9.00;1.00;;;;;;5042448;28;20527;-75
2022/01/12 11:42:20;;;;;;;130.60;27.30;;;9.10;1.00;;;;;;5049041;28;20422;-75
2022/01/12 11:44:56;;;;;;;113.80;24.53;;;9.30;1.00;;;;;;5034837;28;20425;-75
2022/01/12 11:47:28;;;;;;;8.97;4.40;;;9.50;1.00;;;;;;5051463;28;20433;-75
2022/01/12 11:49:56;;;;;;;16.80;7.03;;;9.30;1.00;;;;;;5044007;28;20455;-77
2022/01/12 11:52:30;;;;;;;7.80;3.93;;;9.20;1.00;;;;;;5046033;28;20964;-76
2022/01/12 11:55:15;;;;;;;7.80;3.77;;;9.10;1.00;;;;;;5047989;28;20452;-76
2022/01/12 11:57:50;;;;;;;9.30;4.13;;;9.00;1.00;;;;;;5044288;28;20426;-76
2022/01/12 12:00:30;;;;;;;11.40;3.50;;;8.80;1.00;;;;;;5046402;28;20510;-76
2022/01/12 12:02:57;;;;;;;4.83;3.70;;;8.80;1.00;;;;;;5026090;28;20517;-78
2022/01/12 12:05:30;;;;;;;7.23;4.30;;;8.70;1.00;;;;;;5045620;28;20422;-76
2022/01/12 12:08:04;;;;;;;10.43;4.63;;;8.30;1.00;;;;;;5046527;28;20430;-76
2022/01/12 12:10:40;;;;;;;7.53;3.93;;;8.00;1.00;;;;;;5042896;28;20917;-76
2022/01/12 12:13:06;;;;;;;6.07;3.70;;;8.00;1.00;;;;;;5042326;28;20973;-75
2022/01/12 12:15:33;;;;;;;6.43;4.20;;;7.90;1.00;;;;;;5056833;28;20474;-75
2022/01/12 12:18:09;;;;;;;7.20;4.30;;;8.10;1.00;;;;;;5056333;28;20422;-76
2022/01/12 12:20:36;;;;;;;5.40;3.40;;;8.10;1.00;;;;;;5061472;28;20453;-75
2022/01/12 12:23:02;;;;;;;8.47;4.27;;;8.20;1.00;;;;;;5061774;28;20851;-75
2022/01/12 12:25:34;;;;;;;3.90;3.40;;;8.10;1.00;;;;;;5061705;28;20414;-75
2022/01/12 12:28:02;;;;;;;5.73;3.83;;;7.90;1.00;;;;;;5060028;28;20453;-76
2022/01/12 12:30:31;;;;;;;5.03;3.43;;;7.80;1.00;;;;;;5067101;28;20907;-75
2022/01/12 12:33:07;;;;;;;6.30;3.73;;;7.70;1.00;;;;;;5043674;28;20424;-73
2022/01/12 12:35:34;;;;;;;3.83;3.33;;;7.70;1.00;;;;;;5067049;28;20506;-75
2022/01/12 12:38:14;;;;;;;4.10;3.37;;;7.70;1.00;;;;;;5053792;28;20484;-74
2022/01/12 12:40:46;;;;;;;10.20;4.20;;;7.90;1.00;;;;;;5054793;28;20541;-76
2022/01/12 12:43:22;;;;;;;6.70;3.57;;;8.00;1.00;;;;;;5049594;28;20817;-75
2022/01/12 12:45:54;;;;;;;4.70;3.90;;;7.90;1.00;;;;;;5060869;28;20425;-75
2022/01/12 12:48:25;;;;;;;4.03;3.63;;;7.80;1.00;;;;;;5056449;28;20401;-75
2022/01/12 12:51:14;;;;;;;6.47;3.90;;;7.80;1.00;;;;;;5051736;28;20418;-75
2022/01/12 12:53:45;;;;;;;6.40;3.10;;;7.80;1.00;;;;;;5061023;28;20441;-75
2022/01/12 12:56:16;;;;;;;5.57;3.67;;;7.70;1.00;;;;;;5054042;28;20433;-75
2022/01/12 12:58:56;;;;;;;4.10;3.17;;;7.80;1.00;;;;;;5064676;28;20465;-75
2022/01/12 13:01:24;;;;;;;5.40;3.40;;;7.70;1.00;;;;;;5053087;28;20452;-75
2022/01/12 13:03:58;;;;;;;5.60;3.20;;;7.80;1.00;;;;;;5053529;28;20402;-75
2022/01/12 13:06:35;;;;;;;4.50;3.20;;;7.80;1.00;;;;;;5059218;28;20428;-75
2022/01/12 13:09:06;;;;;;;6.47;3.60;;;7.90;1.00;;;;;;5052906;28;20908;-76
2022/01/12 13:11:34;;;;;;;3.57;3.27;;;7.90;1.00;;;;;;5065764;28;20465;-75
2022/01/12 13:14:05;;;;;;;3.50;3.20;;;7.90;1.00;;;;;;5066730;28;20432;-80
2022/01/12 13:16:32;;;;;;;3.20;2.80;;;7.90;1.00;;;;;;5063468;28;20524;-75
2022/01/12 13:19:19;;;;;;;3.13;2.80;;;7.70;1.00;;;;;;5058761;28;20435;-75
2022/01/12 13:21:45;;;;;;;3.83;2.60;;;7.70;1.00;;;;;;5055101;28;20472;-77
2022/01/12 13:24:11;;;;;;;5.33;3.40;;;7.70;1.00;;;;;;5057297;28;20583;-75
2022/01/12 13:26:38;;;;;;;3.40;2.90;;;7.70;1.00;;;;;;5050531;28;20573;-77
2022/01/12 13:29:06;;;;;;;2.80;2.60;;;7.70;1.00;;;;;;5058496;28;20175;-75
2022/01/12 13:31:32;;;;;;;3.57;2.90;;;7.60;1.00;;;;;;5064469;28;20786;-75
2022/01/12 13:33:59;;;;;;;5.80;3.50;;;8.40;1.00;;;;;;5076310;28;20410;-75
2022/01/12 13:36:31;;;;;;;4.67;3.17;;;7.90;1.00;;;;;;5061115;28;21010;-76
2022/01/12 13:39:09;;;;;;;3.33;2.97;;;7.90;1.00;;;;;;5057620;28;20429;-75
2022/01/12 13:41:37;;;;;;;4.80;3.43;;;8.00;1.00;;;;;;5067771;28;20878;-76
2022/01/12 13:44:05;;;;;;;4.90;3.10;;;8.00;1.00;;;;;;5084227;28;20417;-76
2022/01/12 13:46:43;;;;;;;4.57;3.37;;;8.10;1.00;;;;;;5060627;28;20413;-76
2022/01/12 13:51:55;;;;;;;4.90;3.40;;;8.20;1.00;;;;;;5062887;28;20430;-77
2022/01/12 13:54:22;;;;;;;3.73;3.10;;;8.20;1.00;;;;;;5055405;28;20448;-77
2022/01/12 13:56:53;;;;;;;5.20;3.50;;;8.30;1.00;;;;;;5059356;28;20428;-76
2022/01/12 13:59:20;;;;;;;3.27;2.97;;;8.30;1.00;;;;;;5062285;28;20418;-76
2022/01/12 14:01:47;;;;;;;6.40;3.50;;;8.30;1.00;;;;;;5056067;28;20484;-76
2022/01/12 14:04:24;;;;;;;5.67;3.60;;;9.30;1.00;;;;;;5060908;28;20411;-77
2022/01/12 14:06:53;;;;;;;19.13;9.10;;;8.30;1.00;;;;;;5055131;28;20489;-76
2022/01/12 14:11:50;;;;;;;4.77;3.63;;;8.30;1.00;;;;;;5066675;28;20484;-77
2022/01/12 14:14:17;;;;;;;7.73;3.03;;;8.30;1.00;;;;;;5055931;28;20402;-76
2022/01/12 14:16:42;;;;;;;5.10;3.30;;;9.00;1.00;;;;;;5069851;28;20459;-77
2022/01/12 14:19:09;;;;;;;6.33;3.50;;;8.20;1.00;;;;;;5065876;28;20522;-77
2022/01/12 14:21:37;;;;;;;6.20;3.67;;;9.80;1.00;;;;;;5057160;28;20257;-77
2022/01/12 14:24:11;;;;;;;4.60;3.23;;;8.20;1.00;;;;;;5060680;28;20425;-77
2022/01/12 14:26:40;;;;;;;4.50;3.20;;;8.10;1.00;;;;;;5045523;28;20434;-77
2022/01/12 14:29:10;;;;;;;3.07;2.63;;;8.10;1.00;;;;;;5039625;28;20476;-77
2022/01/12 14:31:38;;;;;;;3.53;2.90;;;8.10;1.00;;;;;;5055200;28;20463;-77
2022/01/12 14:34:14;;;;;;;4.00;3.33;;;8.10;1.00;;;;;;5055382;28;20770;-76
2022/01/12 14:36:40;;;;;;;2.90;2.57;;;;;;;;;;5054489;28;20780;-76
2022/01/12 14:39:14;;;;;;;3.93;2.90;;;8.00;1.00;;;;;;5069022;28;20449;-76
2022/01/12 14:41:40;;;;;;;6.00;3.20;;;8.00;1.00;;;;;;5067739;28;20461;-76
2022/01/12 14:44:08;;;;;;;4.80;3.57;;;;;;;;;;5055749;28;20928;-75
2022/01/12 14:46:44;;;;;;;4.40;3.30;;;7.90;1.00;;;;;;5055937;28;20221;-76
2022/01/12 14:49:09;;;;;;;5.00;3.77;;;7.80;1.00;;;;;;5061483;28;20908;-77
2022/01/12 14:51:35;;;;;;;11.60;3.50;;;7.80;1.00;;;;;;5063828;28;20486;-78
2022/01/12 14:54:01;;;;;;;4.27;3.33;;;7.80;1.00;;;;;;5070763;28;20186;-77
2022/01/12 14:56:27;;;;;;;7.33;4.77;;;7.70;1.00;;;;;;5059066;28;20426;-77
2022/01/12 14:58:53;;;;;;;6.33;4.00;;;7.70;1.00;;;;;;5068087;28;20666;-77
2022/01/12 15:01:18;;;;;;;4.83;3.60;;;9.20;1.00;;;;;;5068621;28;20206;-77
2022/01/12 15:03:44;;;;;;;5.40;3.20;;;;;;;;;;5060034;28;20167;-77